createdAt,value
2023-05-09T00:00:51.719Z,582.00
2023-05-09T00:01:51.783Z,582.00
2023-05-09T00:02:51.816Z,577.00
2023-05-09T00:03:51.959Z,579.00
2023-05-09T00:04:51.874Z,579.00
2023-05-09T00:05:51.832Z,580.00
2023-05-09T00:06:51.834Z,581.00
2023-05-09T00:07:51.869Z,581.00
2023-05-09T00:08:51.888Z,583.00
2023-05-09T00:09:51.896Z,582.00
2023-05-09T00:10:51.923Z,581.00
2023-05-09T00:11:51.996Z,582.00
2023-05-09T00:12:51.989Z,580.00
2023-05-09T00:13:52.014Z,580.00
2023-05-09T00:14:52.111Z,579.00
2023-05-09T00:15:52.033Z,578.00
2023-05-09T00:16:52.122Z,578.00
2023-05-09T00:17:52.075Z,581.00
2023-05-09T00:18:52.096Z,582.00
2023-05-09T00:19:52.171Z,581.00
2023-05-09T00:20:52.136Z,579.00
2023-05-09T00:21:52.199Z,580.00
2023-05-09T00:22:52.174Z,578.00
2023-05-09T00:23:52.244Z,581.00
2023-05-09T00:24:52.227Z,581.00
2023-05-09T00:25:52.257Z,581.00
2023-05-09T00:26:52.248Z,582.00
2023-05-09T00:27:52.280Z,584.00
2023-05-09T00:28:52.299Z,584.00
2023-05-09T00:29:52.313Z,585.00
2023-05-09T00:30:52.433Z,583.00
2023-05-09T00:31:52.421Z,585.00
2023-05-09T00:32:52.392Z,583.00
2023-05-09T00:33:52.404Z,586.00
2023-05-09T00:34:52.436Z,586.00
2023-05-09T00:35:52.444Z,586.00
2023-05-09T00:36:52.471Z,586.00
2023-05-09T00:37:52.486Z,586.00
2023-05-09T00:38:52.496Z,586.00
2023-05-09T00:39:52.546Z,581.00
2023-05-09T00:40:52.549Z,579.00
2023-05-09T00:41:52.573Z,579.00
2023-05-09T00:42:52.637Z,579.00
2023-05-09T00:43:52.589Z,578.00
2023-05-09T00:44:52.668Z,576.00
2023-05-09T00:45:52.728Z,576.00
2023-05-09T00:46:52.765Z,578.00
2023-05-09T00:47:52.841Z,581.00
2023-05-09T00:48:52.753Z,582.00
2023-05-09T00:49:52.726Z,585.00
2023-05-09T00:50:52.753Z,586.00
2023-05-09T00:51:52.759Z,583.00
2023-05-09T00:52:52.791Z,584.00
2023-05-09T00:53:52.809Z,583.00
2023-05-09T00:54:52.851Z,584.00
2023-05-09T00:55:52.864Z,582.00
2023-05-09T00:56:52.951Z,580.00
2023-05-09T00:57:52.881Z,579.00
2023-05-09T00:58:53.014Z,578.00
2023-05-09T00:59:52.937Z,577.00
2023-05-09T01:00:53.002Z,577.00
2023-05-09T01:01:53.043Z,576.00
2023-05-09T01:02:53.365Z,573.00
2023-05-09T01:03:53.101Z,575.00
2023-05-09T01:04:53.039Z,576.00
2023-05-09T01:05:53.070Z,574.00
2023-05-09T01:06:53.074Z,574.00
2023-05-09T01:07:53.083Z,574.00
2023-05-09T01:08:53.126Z,575.00
2023-05-09T01:09:53.115Z,580.00
2023-05-09T01:10:53.153Z,579.00
2023-05-09T01:11:53.197Z,579.00
2023-05-09T01:12:53.197Z,578.00
2023-05-09T01:13:53.213Z,577.00
2023-05-09T01:14:53.236Z,580.00
2023-05-09T01:15:53.284Z,580.00
2023-05-09T01:16:53.282Z,580.00
2023-05-09T01:17:53.358Z,580.00
2023-05-09T01:18:53.416Z,582.00
2023-05-09T01:19:53.342Z,582.00
2023-05-09T01:20:53.354Z,580.00
2023-05-09T01:21:53.382Z,577.00
2023-05-09T01:22:53.395Z,576.00
2023-05-09T01:23:53.414Z,577.00
2023-05-09T01:24:53.438Z,576.00
2023-05-09T01:25:53.489Z,572.00
2023-05-09T01:26:53.480Z,572.00
2023-05-09T01:27:53.538Z,575.00
2023-05-09T01:28:53.543Z,575.00
2023-05-09T01:29:53.569Z,574.00
2023-05-09T01:30:53.554Z,575.00
2023-05-09T01:31:53.612Z,574.00
2023-05-09T01:32:53.705Z,575.00
2023-05-09T01:33:53.630Z,573.00
2023-05-09T01:34:53.756Z,572.00
2023-05-09T01:35:53.643Z,571.00
2023-05-09T01:36:53.695Z,571.00
2023-05-09T01:37:53.722Z,573.00
2023-05-09T01:38:53.752Z,569.00
2023-05-09T01:39:53.768Z,569.00
2023-05-09T01:40:53.768Z,572.00
2023-05-09T01:41:53.834Z,572.00
2023-05-09T01:42:53.804Z,571.00
2023-05-09T01:43:53.865Z,570.00
2023-05-09T01:44:53.838Z,572.00
2023-05-09T01:45:53.851Z,570.00
2023-05-09T01:46:54.058Z,569.00
2023-05-09T01:47:53.923Z,570.00
2023-05-09T01:48:53.934Z,567.00
2023-05-09T01:49:53.940Z,567.00
2023-05-09T01:50:54.043Z,564.00
2023-05-09T01:51:53.989Z,565.00
2023-05-09T01:52:53.991Z,567.00
2023-05-09T01:53:54.063Z,567.00
2023-05-09T01:54:54.029Z,567.00
2023-05-09T01:55:54.078Z,570.00
2023-05-09T01:56:54.090Z,569.00
2023-05-09T01:57:54.119Z,569.00
2023-05-09T01:58:54.130Z,570.00
2023-05-09T01:59:54.136Z,571.00
2023-05-09T02:00:54.212Z,570.00
2023-05-09T02:01:54.228Z,574.00
2023-05-09T02:02:54.270Z,575.00
2023-05-09T02:03:54.285Z,573.00
2023-05-09T02:04:54.280Z,571.00
2023-05-09T02:05:54.276Z,571.00
2023-05-09T02:06:54.390Z,573.00
2023-05-09T02:07:54.309Z,578.00
2023-05-09T02:08:54.336Z,578.00
2023-05-09T02:09:54.361Z,577.00
2023-05-09T02:10:54.451Z,577.00
2023-05-09T02:11:54.434Z,574.00
2023-05-09T02:12:54.473Z,575.00
2023-05-09T02:13:54.435Z,573.00
2023-05-09T02:14:54.463Z,575.00
2023-05-09T02:15:54.478Z,572.00
2023-05-09T02:16:54.545Z,572.00
2023-05-09T02:17:54.561Z,572.00
2023-05-09T02:18:54.566Z,573.00
2023-05-09T02:19:54.589Z,574.00
2023-05-09T02:20:54.636Z,573.00
2023-05-09T02:21:54.648Z,571.00
2023-05-09T02:22:54.778Z,574.00
2023-05-09T02:23:54.705Z,571.00
2023-05-09T02:24:54.711Z,571.00
2023-05-09T02:25:54.751Z,570.00
2023-05-09T02:26:54.788Z,569.00
2023-05-09T02:27:54.772Z,572.00
2023-05-09T02:28:54.804Z,574.00
2023-05-09T02:29:54.813Z,574.00
2023-05-09T02:30:54.853Z,573.00
2023-05-09T02:31:54.916Z,571.00
2023-05-09T02:32:54.974Z,572.00
2023-05-09T02:33:54.941Z,573.00
2023-05-09T02:34:54.941Z,572.00
2023-05-09T02:35:54.961Z,576.00
2023-05-09T02:36:55.038Z,575.00
2023-05-09T02:37:55.031Z,575.00
2023-05-09T02:38:55.122Z,575.00
2023-05-09T02:39:55.090Z,573.00
2023-05-09T02:40:55.089Z,573.00
2023-05-09T02:41:55.119Z,574.00
2023-05-09T02:42:55.135Z,572.00
2023-05-09T02:43:55.173Z,571.00
2023-05-09T02:44:55.200Z,570.00
2023-05-09T02:45:55.263Z,569.00
2023-05-09T02:46:55.266Z,570.00
2023-05-09T02:47:55.389Z,567.00
2023-05-09T02:48:55.332Z,566.00
2023-05-09T02:49:55.351Z,568.00
2023-05-09T02:50:55.391Z,569.00
2023-05-09T02:51:55.392Z,569.00
2023-05-09T02:52:55.429Z,564.00
2023-05-09T02:53:55.461Z,565.00
2023-05-09T02:54:55.557Z,567.00
2023-05-09T02:55:55.505Z,569.00
2023-05-09T02:56:55.539Z,569.00
2023-05-09T02:58:09.155Z,567.00
2023-05-09T02:58:56.562Z,566.00
2023-05-09T02:59:55.540Z,566.00
2023-05-09T03:00:55.591Z,564.00
2023-05-09T03:01:55.564Z,563.00
2023-05-09T03:02:55.591Z,565.00
2023-05-09T03:03:55.612Z,566.00
2023-05-09T03:04:55.494Z,567.00
2023-05-09T03:05:55.483Z,567.00
2023-05-09T03:06:55.510Z,569.00
2023-05-09T03:07:55.478Z,571.00
2023-05-09T03:08:55.451Z,571.00
2023-05-09T03:09:55.464Z,568.00
2023-05-09T03:10:55.576Z,567.00
2023-05-09T03:11:55.436Z,566.00
2023-05-09T03:12:55.461Z,563.00
2023-05-09T03:13:55.432Z,566.00
2023-05-09T03:14:55.440Z,565.00
2023-05-09T03:15:55.494Z,567.00
2023-05-09T03:16:55.431Z,566.00
2023-05-09T03:17:55.534Z,565.00
2023-05-09T03:18:55.533Z,566.00
2023-05-09T03:19:55.508Z,563.00
2023-05-09T03:20:55.561Z,563.00
2023-05-09T03:21:55.578Z,563.00
2023-05-09T03:22:55.572Z,559.00
2023-05-09T03:23:55.605Z,559.00
2023-05-09T03:24:55.634Z,561.00
2023-05-09T03:25:55.682Z,564.00
2023-05-09T03:26:55.766Z,565.00
2023-05-09T03:27:55.736Z,564.00
2023-05-09T03:28:56.057Z,567.00
2023-05-09T03:29:55.745Z,564.00
2023-05-09T03:30:55.784Z,564.00
2023-05-09T03:31:55.848Z,564.00
2023-05-09T03:32:55.872Z,561.00
2023-05-09T03:33:55.841Z,562.00
2023-05-09T03:34:55.876Z,562.00
2023-05-09T03:35:55.913Z,563.00
2023-05-09T03:36:55.910Z,564.00
2023-05-09T03:37:55.941Z,563.00
2023-05-09T03:38:55.963Z,563.00
2023-05-09T03:39:55.982Z,563.00
2023-05-09T03:40:56.022Z,562.00
2023-05-09T03:41:56.043Z,564.00
2023-05-09T03:42:56.162Z,564.00
2023-05-09T03:43:56.078Z,565.00
2023-05-09T03:44:56.115Z,566.00
2023-05-09T03:45:56.152Z,563.00
2023-05-09T03:46:56.235Z,564.00
2023-05-09T03:47:56.265Z,562.00
2023-05-09T03:48:56.248Z,563.00
2023-05-09T03:49:56.263Z,566.00
2023-05-09T03:50:56.259Z,567.00
2023-05-09T03:51:56.295Z,569.00
2023-05-09T03:52:56.325Z,568.00
2023-05-09T03:53:56.303Z,568.00
2023-05-09T03:54:56.359Z,566.00
2023-05-09T03:55:56.387Z,566.00
2023-05-09T03:56:56.377Z,566.00
2023-05-09T03:57:56.424Z,565.00
2023-05-09T03:58:56.525Z,568.00
2023-05-09T03:59:56.469Z,567.00
2023-05-09T04:00:56.497Z,567.00
2023-05-09T04:01:56.577Z,564.00
2023-05-09T04:02:56.636Z,567.00
2023-05-09T04:03:56.580Z,565.00
2023-05-09T04:04:56.571Z,563.00
2023-05-09T04:05:56.616Z,563.00
2023-05-09T04:06:56.610Z,563.00
2023-05-09T04:07:56.665Z,564.00
2023-05-09T04:08:56.654Z,562.00
2023-05-09T04:09:56.660Z,559.00
2023-05-09T04:10:56.697Z,559.00
2023-05-09T04:11:56.718Z,559.00
2023-05-09T04:12:56.790Z,560.00
2023-05-09T04:13:56.765Z,559.00
2023-05-09T04:14:56.865Z,558.00
2023-05-09T04:15:56.819Z,559.00
2023-05-09T04:16:56.877Z,559.00
2023-05-09T04:17:56.943Z,560.00
2023-05-09T04:18:56.902Z,564.00
2023-05-09T04:19:56.888Z,565.00
2023-05-09T04:20:56.930Z,564.00
2023-05-09T04:21:56.967Z,564.00
2023-05-09T04:22:56.979Z,562.00
2023-05-09T04:23:56.977Z,563.00
2023-05-09T04:24:56.995Z,563.00
2023-05-09T04:25:57.033Z,565.00
2023-05-09T04:26:57.048Z,563.00
2023-05-09T04:27:57.071Z,562.00
2023-05-09T04:28:57.131Z,563.00
2023-05-09T04:29:57.119Z,563.00
2023-05-09T04:30:57.378Z,560.00
2023-05-09T04:31:57.316Z,561.00
2023-05-09T04:32:57.186Z,561.00
2023-05-09T04:33:57.215Z,560.00
2023-05-09T04:34:57.265Z,556.00
2023-05-09T04:35:57.250Z,556.00
2023-05-09T04:36:57.279Z,557.00
2023-05-09T04:37:57.294Z,557.00
2023-05-09T04:38:57.340Z,558.00
2023-05-09T04:39:57.353Z,559.00
2023-05-09T04:40:57.378Z,559.00
2023-05-09T04:41:57.405Z,559.00
2023-05-09T04:42:57.448Z,559.00
2023-05-09T04:43:57.483Z,559.00
2023-05-09T04:44:57.506Z,559.00
2023-05-09T04:45:57.540Z,559.00
2023-05-09T04:46:57.629Z,560.00
2023-05-09T04:47:57.640Z,560.00
2023-05-09T04:48:57.618Z,562.00
2023-05-09T04:49:57.691Z,562.00
2023-05-09T04:50:57.667Z,562.00
2023-05-09T04:51:57.717Z,561.00
2023-05-09T04:52:57.746Z,563.00
2023-05-09T04:53:57.766Z,567.00
2023-05-09T04:54:57.786Z,566.00
2023-05-09T04:55:57.835Z,565.00
2023-05-09T04:57:09.786Z,567.00
2023-05-09T04:57:58.819Z,566.00
2023-05-09T04:58:57.814Z,566.00
2023-05-09T04:59:57.799Z,568.00
2023-05-09T05:00:57.796Z,569.00
2023-05-09T05:01:57.846Z,569.00
2023-05-09T05:02:57.876Z,569.00
2023-05-09T05:03:57.784Z,567.00
2023-05-09T05:05:10.055Z,565.00
2023-05-09T05:05:58.768Z,567.00
2023-05-09T05:06:57.744Z,566.00
2023-05-09T05:07:58.085Z,567.00
2023-05-09T05:08:57.738Z,567.00
2023-05-09T05:09:57.709Z,568.00
2023-05-09T05:10:57.724Z,569.00
2023-05-09T05:12:01.608Z,568.00
2023-05-09T05:12:58.794Z,565.00
2023-05-09T05:13:57.693Z,563.00
2023-05-09T05:14:57.687Z,563.00
2023-05-09T05:15:57.711Z,561.00
2023-05-09T05:16:57.696Z,564.00
2023-05-09T05:17:57.687Z,565.00
2023-05-09T05:18:57.775Z,565.00
2023-05-09T05:19:57.643Z,568.00
2023-05-09T05:20:57.660Z,568.00
2023-05-09T05:21:57.654Z,568.00
2023-05-09T05:22:57.642Z,567.00
2023-05-09T05:23:57.660Z,568.00
2023-05-09T05:24:57.642Z,568.00
2023-05-09T05:25:57.603Z,567.00
2023-05-09T05:26:57.604Z,567.00
2023-05-09T05:27:57.630Z,565.00
2023-05-09T05:28:57.681Z,564.00
2023-05-09T05:29:57.686Z,561.00
2023-05-09T05:30:57.700Z,561.00
2023-05-09T05:31:57.972Z,563.00
2023-05-09T05:32:57.772Z,561.00
2023-05-09T05:33:57.797Z,560.00
2023-05-09T05:34:57.957Z,563.00
2023-05-09T05:35:57.805Z,572.00
2023-05-09T05:36:57.798Z,583.00
2023-05-09T05:37:57.876Z,610.00
2023-05-09T05:38:57.884Z,627.00
2023-05-09T05:39:57.888Z,658.00
2023-05-09T05:40:57.933Z,683.00
2023-05-09T05:41:57.935Z,704.00
2023-05-09T05:42:57.964Z,742.00
2023-05-09T05:43:57.989Z,784.00
2023-05-09T05:44:57.993Z,853.00
2023-05-09T05:45:58.053Z,862.00
2023-05-09T05:46:58.032Z,893.00
2023-05-09T05:47:58.079Z,920.00
2023-05-09T05:48:58.073Z,937.00
2023-05-09T05:49:58.090Z,1001.00
2023-05-09T05:50:58.183Z,1038.00
2023-05-09T05:51:58.110Z,1061.00
2023-05-09T05:52:58.602Z,1168.00
2023-05-09T05:53:58.126Z,1181.00
2023-05-09T05:54:58.137Z,1177.00
2023-05-09T05:55:58.148Z,1186.00
2023-05-09T05:56:58.165Z,1216.00
2023-05-09T05:57:58.135Z,1260.00
2023-05-09T05:58:58.121Z,1284.00
2023-05-09T05:59:58.109Z,1320.00
2023-05-09T06:00:58.169Z,1377.00
2023-05-09T06:01:58.198Z,1379.00
2023-05-09T06:02:58.629Z,1406.00
2023-05-09T06:03:58.233Z,1477.00
2023-05-09T06:04:58.208Z,1490.00
2023-05-09T06:05:58.285Z,1497.00
2023-05-09T06:06:58.405Z,1521.00
2023-05-09T06:07:58.368Z,1557.00
2023-05-09T06:08:58.446Z,1569.00
2023-05-09T06:09:58.471Z,1568.00
2023-05-09T06:10:58.537Z,1576.00
2023-05-09T06:11:58.602Z,1596.00
2023-05-09T06:12:58.695Z,1622.00
2023-05-09T06:13:58.737Z,1661.00
2023-05-09T06:14:58.779Z,1724.00
2023-05-09T06:16:07.824Z,1757.00
2023-05-09T06:16:59.861Z,1769.00
2023-05-09T06:17:58.920Z,1785.00
2023-05-09T06:18:58.816Z,1811.00
2023-05-09T06:19:58.835Z,1837.00
2023-05-09T06:20:58.824Z,1858.00
2023-05-09T06:21:58.844Z,1879.00
2023-05-09T06:22:58.899Z,1905.00
2023-05-09T06:24:09.905Z,2007.00
2023-05-09T06:24:59.807Z,2004.00
2023-05-09T06:25:58.779Z,2016.00
2023-05-09T06:26:58.780Z,2029.00
2023-05-09T06:27:58.804Z,2057.00
2023-05-09T06:28:58.759Z,2086.00
2023-05-09T06:29:58.752Z,2139.00
2023-05-09T06:30:58.777Z,2147.00
2023-05-09T06:31:58.788Z,2161.00
2023-05-09T06:32:58.769Z,2158.00
2023-05-09T06:33:58.720Z,2154.00
2023-05-09T06:34:58.728Z,2148.00
2023-05-09T06:35:58.780Z,2152.00
2023-05-09T06:36:58.912Z,2123.00
2023-05-09T06:37:59.092Z,2011.00
2023-05-09T06:38:59.191Z,2010.00
2023-05-09T06:39:58.998Z,2006.00
2023-05-09T06:40:59.024Z,2009.00
2023-05-09T06:41:59.156Z,2019.00
2023-05-09T06:42:59.171Z,1751.00
2023-05-09T06:44:00.132Z,1743.00
2023-05-09T06:44:59.301Z,1557.00
2023-05-09T06:45:59.367Z,1563.00
2023-05-09T06:46:59.406Z,1471.00
2023-05-09T06:47:59.470Z,1440.00
2023-05-09T06:48:59.488Z,1299.00
2023-05-09T06:49:59.517Z,1301.00
2023-05-09T06:50:59.567Z,1312.00
2023-05-09T06:51:59.681Z,1257.00
2023-05-09T06:52:59.634Z,1176.00
2023-05-09T06:53:59.639Z,1170.00
2023-05-09T06:54:59.729Z,1172.00
2023-05-09T06:55:59.707Z,1174.00
2023-05-09T06:56:59.693Z,1155.00
2023-05-09T06:57:59.735Z,1138.00
2023-05-09T06:58:59.730Z,1131.00
2023-05-09T06:59:59.774Z,1094.00
2023-05-09T07:00:59.736Z,1083.00
2023-05-09T07:01:59.816Z,1086.00
2023-05-09T07:02:59.733Z,1074.00
2023-05-09T07:03:59.673Z,1035.00
2023-05-09T07:04:59.789Z,1013.00
2023-05-09T07:05:59.659Z,1004.00
2023-05-09T07:06:59.708Z,1002.00
2023-05-09T07:07:59.769Z,992.00
2023-05-09T07:08:59.663Z,981.00
2023-05-09T07:10:10.488Z,978.00
2023-05-09T07:11:00.736Z,963.00
2023-05-09T07:11:59.649Z,958.00
2023-05-09T07:12:59.658Z,951.00
2023-05-09T07:13:59.667Z,932.00
2023-05-09T07:14:59.676Z,922.00
2023-05-09T07:15:59.661Z,927.00
2023-05-09T07:17:13.596Z,939.00
2023-05-09T07:18:00.739Z,916.00
2023-05-09T07:18:59.590Z,908.00
2023-05-09T07:19:59.576Z,921.00
2023-05-09T07:20:59.573Z,920.00
2023-05-09T07:21:59.772Z,919.00
2023-05-09T07:22:59.641Z,920.00
2023-05-09T07:23:59.578Z,927.00
2023-05-09T07:24:59.559Z,911.00
2023-05-09T07:25:59.538Z,915.00
2023-05-09T07:26:59.652Z,924.00
2023-05-09T07:27:59.511Z,998.00
2023-05-09T07:28:59.569Z,995.00
2023-05-09T07:29:59.578Z,1007.00
2023-05-09T07:30:59.828Z,1030.00
2023-05-09T07:31:59.723Z,1051.00
2023-05-09T07:32:59.853Z,1111.00
2023-05-09T07:34:00.152Z,1177.00
2023-05-09T07:34:59.859Z,1191.00
2023-05-09T07:35:59.923Z,1197.00
2023-05-09T07:37:00.647Z,1166.00
2023-05-09T07:38:00.088Z,1105.00
2023-05-09T07:39:00.176Z,1091.00
2023-05-09T07:40:00.169Z,1007.00
2023-05-09T07:41:00.166Z,1017.00
2023-05-09T07:42:00.238Z,999.00
2023-05-09T07:43:00.341Z,982.00
2023-05-09T07:44:00.685Z,945.00
2023-05-09T07:45:00.385Z,897.00
2023-05-09T07:46:00.440Z,904.00
2023-05-09T07:47:00.472Z,841.00
2023-05-09T07:48:00.573Z,862.00
2023-05-09T07:49:00.625Z,857.00
2023-05-09T07:50:00.637Z,836.00
2023-05-09T07:51:00.711Z,822.00
2023-05-09T07:52:00.764Z,816.00
2023-05-09T07:53:00.899Z,781.00
2023-05-09T07:54:00.950Z,796.00
2023-05-09T07:55:00.911Z,786.00
2023-05-09T07:56:00.973Z,785.00
2023-05-09T07:57:01.077Z,784.00
2023-05-09T07:58:01.200Z,789.00
2023-05-09T07:59:01.217Z,768.00
2023-05-09T08:00:01.119Z,758.00
2023-05-09T08:01:01.316Z,746.00
2023-05-09T08:02:01.141Z,758.00
2023-05-09T08:03:01.371Z,659.00
2023-05-09T08:04:01.204Z,758.00
2023-05-09T08:05:01.084Z,774.00
2023-05-09T08:06:01.042Z,777.00
2023-05-09T08:07:01.096Z,773.00
2023-05-09T08:08:01.167Z,754.00
2023-05-09T08:09:01.270Z,742.00
2023-05-09T08:10:01.319Z,756.00
2023-05-09T08:11:01.374Z,769.00
2023-05-09T08:12:01.427Z,765.00
2023-05-09T08:13:01.506Z,763.00
2023-05-09T08:14:01.558Z,725.00
2023-05-09T08:15:01.715Z,684.00
2023-05-09T08:16:01.778Z,705.00
2023-05-09T08:17:01.741Z,720.00
2023-05-09T08:18:01.795Z,729.00
2023-05-09T08:19:01.915Z,730.00
2023-05-09T08:20:01.932Z,679.00
2023-05-09T08:21:01.963Z,719.00
2023-05-09T08:22:02.030Z,718.00
2023-05-09T08:23:02.158Z,638.00
2023-05-09T08:24:02.682Z,668.00
2023-05-09T08:25:02.218Z,704.00
2023-05-09T08:26:02.269Z,704.00
2023-05-09T08:27:02.401Z,713.00
2023-05-09T08:28:02.438Z,635.00
2023-05-09T08:29:02.639Z,637.00
2023-05-09T08:30:02.508Z,622.00
2023-05-09T08:31:02.664Z,630.00
2023-05-09T08:32:02.600Z,645.00
2023-05-09T08:33:02.699Z,634.00
2023-05-09T08:34:02.762Z,629.00
2023-05-09T08:35:03.168Z,625.00
2023-05-09T08:36:02.846Z,508.00
2023-05-09T08:37:02.933Z,525.00
2023-05-09T08:38:02.960Z,528.00
2023-05-09T08:39:03.141Z,533.00
2023-05-09T08:40:03.156Z,529.00
2023-05-09T08:41:03.083Z,523.00
2023-05-09T08:42:03.132Z,621.00
2023-05-09T08:43:03.134Z,833.00
2023-05-09T08:44:03.186Z,864.00
2023-05-09T08:45:03.235Z,875.00
2023-05-09T08:46:03.333Z,960.00
2023-05-09T08:47:03.587Z,1016.00
2023-05-09T08:48:03.453Z,1013.00
2023-05-09T08:49:03.490Z,1003.00
2023-05-09T08:50:03.639Z,988.00
2023-05-09T08:51:03.563Z,949.00
2023-05-09T08:52:03.621Z,943.00
2023-05-09T08:53:03.725Z,928.00
2023-05-09T08:54:04.169Z,807.00
2023-05-09T08:55:03.741Z,834.00
2023-05-09T08:56:03.784Z,936.00
2023-05-09T08:57:03.792Z,920.00
2023-05-09T08:58:03.832Z,878.00
2023-05-09T08:59:03.886Z,870.00
2023-05-09T09:00:03.924Z,864.00
2023-05-09T09:01:03.954Z,855.00
2023-05-09T09:02:04.025Z,805.00
2023-05-09T09:03:04.208Z,797.00
2023-05-09T09:04:04.060Z,804.00
2023-05-09T09:05:04.134Z,801.00
2023-05-09T09:06:04.127Z,810.00
2023-05-09T09:07:04.160Z,812.00
2023-05-09T09:08:04.184Z,808.00
2023-05-09T09:09:04.276Z,806.00
2023-05-09T09:10:04.261Z,806.00
2023-05-09T09:11:04.334Z,806.00
2023-05-09T09:12:04.333Z,803.00
2023-05-09T09:13:04.404Z,694.00
2023-05-09T09:14:04.393Z,773.00
2023-05-09T09:15:04.462Z,779.00
2023-05-09T09:16:04.510Z,785.00
2023-05-09T09:17:04.563Z,792.00
2023-05-09T09:18:07.270Z,798.00
2023-05-09T09:19:04.581Z,806.00
2023-05-09T09:20:04.655Z,809.00
2023-05-09T09:21:04.569Z,809.00
2023-05-09T09:22:04.548Z,708.00
2023-05-09T09:23:04.557Z,844.00
2023-05-09T09:24:04.522Z,861.00
2023-05-09T09:25:04.586Z,861.00
2023-05-09T09:26:04.522Z,836.00
2023-05-09T09:27:04.498Z,662.00
2023-05-09T09:28:04.494Z,766.00
2023-05-09T09:29:04.506Z,781.00
2023-05-09T09:30:04.533Z,681.00
2023-05-09T09:31:04.475Z,747.00
2023-05-09T09:32:04.498Z,834.00
2023-05-09T09:33:04.602Z,858.00
2023-05-09T09:34:04.741Z,949.00
2023-05-09T09:35:04.441Z,911.00
2023-05-09T09:36:04.444Z,885.00
2023-05-09T09:37:04.493Z,837.00
2023-05-09T09:38:04.459Z,842.00
2023-05-09T09:39:04.445Z,824.00
2023-05-09T09:40:04.429Z,795.00
2023-05-09T09:41:04.424Z,746.00
2023-05-09T09:42:04.404Z,770.00
2023-05-09T09:43:04.380Z,773.00
2023-05-09T09:44:04.447Z,578.00
2023-05-09T09:45:04.384Z,702.00
2023-05-09T09:46:04.410Z,732.00
2023-05-09T09:47:04.361Z,656.00
2023-05-09T09:48:04.381Z,671.00
2023-05-09T09:49:04.333Z,624.00
2023-05-09T09:50:04.421Z,583.00
2023-05-09T09:51:04.338Z,573.00
2023-05-09T09:52:04.334Z,565.00
2023-05-09T09:53:04.339Z,560.00
2023-05-09T09:54:04.335Z,551.00
2023-05-09T09:55:04.296Z,539.00
2023-05-09T09:56:04.311Z,535.00
2023-05-09T09:57:04.312Z,539.00
2023-05-09T09:58:04.288Z,584.00
2023-05-09T09:59:04.274Z,573.00
2023-05-09T10:00:04.289Z,579.00
2023-05-09T10:01:04.325Z,587.00
2023-05-09T10:02:07.556Z,567.00
2023-05-09T10:03:04.336Z,570.00
2023-05-09T10:04:04.356Z,561.00
2023-05-09T10:05:04.240Z,546.00
2023-05-09T10:06:04.316Z,559.00
2023-05-09T10:07:04.218Z,555.00
2023-05-09T10:08:04.204Z,553.00
2023-05-09T10:09:04.212Z,559.00
2023-05-09T10:10:04.220Z,565.00
2023-05-09T10:11:04.209Z,573.00
2023-05-09T10:12:04.241Z,571.00
2023-05-09T10:13:04.209Z,561.00
2023-05-09T10:14:04.210Z,548.00
2023-05-09T10:15:04.172Z,534.00
2023-05-09T10:16:04.281Z,532.00
2023-05-09T10:17:04.263Z,544.00
2023-05-09T10:18:04.304Z,544.00
2023-05-09T10:19:04.179Z,552.00
2023-05-09T10:20:04.145Z,542.00
2023-05-09T10:21:04.184Z,529.00
2023-05-09T10:22:04.287Z,526.00
2023-05-09T10:23:04.103Z,549.00
2023-05-09T10:24:04.127Z,562.00
2023-05-09T10:25:04.079Z,526.00
2023-05-09T10:26:04.105Z,585.00
2023-05-09T10:27:04.128Z,611.00
2023-05-09T10:28:04.065Z,684.00
2023-05-09T10:29:04.058Z,918.00
2023-05-09T10:30:04.067Z,837.00
2023-05-09T10:31:04.959Z,813.00
2023-05-09T10:32:04.035Z,839.00
2023-05-09T10:33:04.134Z,878.00
2023-05-09T10:34:04.036Z,894.00
2023-05-09T10:35:04.044Z,896.00
2023-05-09T10:36:04.013Z,887.00
2023-05-09T10:37:04.011Z,878.00
2023-05-09T10:38:04.133Z,865.00
2023-05-09T10:39:04.043Z,855.00
2023-05-09T10:40:04.005Z,857.00
2023-05-09T10:41:04.026Z,846.00
2023-05-09T10:42:04.044Z,843.00
2023-05-09T10:43:04.031Z,843.00
2023-05-09T10:44:04.076Z,831.00
2023-05-09T10:45:04.063Z,830.00
2023-05-09T10:46:04.146Z,817.00
2023-05-09T10:47:04.217Z,811.00
2023-05-09T10:48:04.184Z,817.00
2023-05-09T10:49:04.130Z,825.00
2023-05-09T10:50:04.167Z,828.00
2023-05-09T10:51:04.177Z,813.00
2023-05-09T10:52:04.207Z,773.00
2023-05-09T10:53:04.232Z,769.00
2023-05-09T10:54:04.307Z,759.00
2023-05-09T10:55:04.239Z,755.00
2023-05-09T10:56:04.236Z,691.00
2023-05-09T10:57:04.257Z,728.00
2023-05-09T10:58:04.309Z,739.00
2023-05-09T10:59:04.315Z,745.00
2023-05-09T11:00:04.406Z,737.00
2023-05-09T11:01:04.351Z,730.00
2023-05-09T11:02:04.586Z,715.00
2023-05-09T11:03:04.435Z,705.00
2023-05-09T11:04:04.472Z,702.00
2023-05-09T11:05:04.459Z,697.00
2023-05-09T11:06:04.484Z,694.00
2023-05-09T11:07:04.502Z,693.00
2023-05-09T11:08:04.537Z,693.00
2023-05-09T11:09:04.542Z,689.00
2023-05-09T11:10:04.658Z,681.00
2023-05-09T11:11:04.657Z,669.00
2023-05-09T11:12:04.630Z,662.00
2023-05-09T11:13:04.739Z,657.00
2023-05-09T11:14:04.726Z,652.00
2023-05-09T11:15:04.852Z,606.00
2023-05-09T11:16:04.771Z,594.00
2023-05-09T11:17:04.789Z,585.00
2023-05-09T11:18:04.898Z,576.00
2023-05-09T11:19:04.845Z,576.00
2023-05-09T11:20:05.216Z,581.00
2023-05-09T11:21:04.931Z,585.00
2023-05-09T11:22:04.964Z,588.00
2023-05-09T11:23:05.027Z,597.00
2023-05-09T11:24:05.004Z,600.00
2023-05-09T11:25:05.004Z,582.00
2023-05-09T11:26:05.144Z,568.00
2023-05-09T11:27:05.098Z,572.00
2023-05-09T11:28:05.129Z,573.00
2023-05-09T11:29:05.162Z,574.00
2023-05-09T11:30:05.188Z,576.00
2023-05-09T11:31:05.203Z,575.00
2023-05-09T11:32:05.264Z,573.00
2023-05-09T11:33:05.271Z,575.00
2023-05-09T11:34:05.291Z,570.00
2023-05-09T11:35:05.330Z,564.00
2023-05-09T11:36:05.358Z,553.00
2023-05-09T11:37:05.374Z,551.00
2023-05-09T11:38:05.413Z,550.00
2023-05-09T11:39:05.499Z,548.00
2023-05-09T11:40:05.459Z,546.00
2023-05-09T11:41:05.508Z,539.00
2023-05-09T11:42:05.680Z,531.00
2023-05-09T11:43:05.539Z,525.00
2023-05-09T11:44:05.566Z,520.00
2023-05-09T11:45:05.590Z,513.00
2023-05-09T11:46:05.608Z,509.00
2023-05-09T11:47:05.619Z,499.00
2023-05-09T11:48:05.682Z,498.00
2023-05-09T11:49:05.652Z,492.00
2023-05-09T11:50:05.671Z,486.00
2023-05-09T11:51:05.716Z,479.00
2023-05-09T11:52:05.717Z,474.00
2023-05-09T11:53:05.734Z,471.00
2023-05-09T11:54:05.755Z,467.00
2023-05-09T11:55:05.763Z,462.00
2023-05-09T11:56:05.752Z,458.00
2023-05-09T11:57:05.784Z,454.00
2023-05-09T11:58:05.862Z,453.00
2023-05-09T11:59:05.785Z,450.00
2023-05-09T12:00:05.802Z,447.00
2023-05-09T12:01:05.823Z,445.00
2023-05-09T12:02:05.899Z,441.00
2023-05-09T12:03:05.944Z,441.00
2023-05-09T12:04:05.979Z,441.00
2023-05-09T12:05:05.899Z,435.00
2023-05-09T12:06:05.926Z,433.00
2023-05-09T12:07:05.898Z,431.00
2023-05-09T12:08:05.923Z,431.00
2023-05-09T12:09:05.963Z,430.00
2023-05-09T12:10:05.982Z,431.00
2023-05-09T12:11:05.951Z,429.00
2023-05-09T12:12:06.000Z,429.00
2023-05-09T12:13:06.016Z,429.00
2023-05-09T12:14:06.150Z,429.00
2023-05-09T12:15:06.257Z,427.00
2023-05-09T12:16:06.066Z,426.00
2023-05-09T12:17:06.035Z,425.00
2023-05-09T12:18:06.061Z,425.00
2023-05-09T12:19:06.059Z,456.00
2023-05-09T12:20:06.080Z,461.00
2023-05-09T12:21:06.114Z,479.00
2023-05-09T12:22:06.162Z,513.00
2023-05-09T12:23:06.156Z,532.00
2023-05-09T12:24:06.195Z,547.00
2023-05-09T12:25:06.238Z,551.00
2023-05-09T12:26:06.260Z,534.00